createdAt,value
2022-11-24T00:01:50.369Z,97031.00
2022-11-24T00:05:52.383Z,97038.47
2022-11-24T00:09:54.484Z,97043.41
2022-11-24T00:13:57.753Z,97043.31
2022-11-24T00:17:59.767Z,97043.53
2022-11-24T00:22:01.799Z,97048.91
2022-11-24T00:26:05.012Z,97043.94
2022-11-24T00:30:09.417Z,97039.16
2022-11-24T00:34:14.300Z,97046.47
2022-11-24T00:38:16.309Z,97045.84
2022-11-24T00:42:18.592Z,97052.94
2022-11-24T00:46:21.731Z,97064.56
2022-11-24T00:50:23.890Z,97064.81
2022-11-24T00:54:25.949Z,97069.38
2022-11-24T00:58:27.957Z,97080.81
2022-11-24T01:02:30.034Z,97080.19
2022-11-24T01:06:32.631Z,97092.47
2022-11-24T01:10:35.277Z,97097.69
2022-11-24T01:14:37.488Z,97108.16
2022-11-24T01:18:39.581Z,97116.47
2022-11-24T01:22:42.295Z,97108.28
2022-11-24T01:26:45.016Z,97116.75
2022-11-24T01:30:57.048Z,97118.44
2022-11-24T01:35:04.107Z,97110.72
2022-11-24T01:39:06.135Z,97117.50
2022-11-24T01:43:19.436Z,97120.44
2022-11-24T01:47:34.451Z,97119.31
2022-11-24T01:51:41.780Z,97117.34
2022-11-24T01:55:43.832Z,97124.00
2022-11-24T01:59:50.681Z,97117.41
2022-11-24T02:03:59.592Z,97130.06
2022-11-24T02:08:02.431Z,97130.75
2022-11-24T02:12:06.040Z,97138.31
2022-11-24T02:16:10.879Z,97137.34
2022-11-24T02:20:14.917Z,97139.88
2022-11-24T02:24:40.267Z,97146.94
2022-11-24T02:28:42.468Z,97145.38
2022-11-24T02:32:44.754Z,97154.19
2022-11-24T02:36:46.748Z,97146.63
2022-11-24T02:40:49.638Z,97144.09
2022-11-24T02:44:56.803Z,97150.38
2022-11-24T02:48:58.814Z,97154.00
2022-11-24T02:53:00.833Z,97152.34
2022-11-24T02:57:03.032Z,97156.59
2022-11-24T03:01:05.360Z,97161.03
2022-11-24T03:05:07.769Z,97161.94
2022-11-24T03:09:11.316Z,97158.41
2022-11-24T03:13:13.435Z,97147.06
2022-11-24T03:17:15.428Z,97159.59
2022-11-24T03:21:17.480Z,97166.97
2022-11-24T03:25:19.997Z,97161.16
2022-11-24T03:29:22.407Z,97153.69
2022-11-24T03:33:24.410Z,97162.75
2022-11-24T03:37:26.543Z,97160.25
2022-11-24T03:41:28.554Z,97160.00
2022-11-24T03:45:45.626Z,97156.72
2022-11-24T03:49:48.333Z,97160.53
2022-11-24T03:53:50.419Z,97144.28
2022-11-24T03:57:52.435Z,97161.28
2022-11-24T04:01:54.474Z,97167.63
2022-11-24T04:05:56.530Z,97169.53
2022-11-24T04:09:58.591Z,97182.50
2022-11-24T04:14:00.639Z,97191.06
2022-11-24T04:18:02.648Z,97194.34
2022-11-24T04:22:04.751Z,97201.41
2022-11-24T04:26:06.765Z,97196.41
2022-11-24T04:30:09.746Z,97200.72
2022-11-24T04:34:11.799Z,97204.09
2022-11-24T04:38:13.789Z,97206.47
2022-11-24T04:42:36.132Z,97206.22
2022-11-24T04:46:38.296Z,97197.47
2022-11-24T04:50:40.448Z,97206.34
2022-11-24T04:54:42.590Z,97220.03
2022-11-24T04:58:48.065Z,97238.06
2022-11-24T05:02:50.086Z,97231.91
2022-11-24T05:06:52.064Z,97243.06
2022-11-24T05:10:54.031Z,97243.53
2022-11-24T05:14:56.143Z,97257.22
2022-11-24T05:18:58.301Z,97253.44
2022-11-24T05:23:07.647Z,97260.88
2022-11-24T05:27:09.648Z,97260.75
2022-11-24T05:31:11.640Z,97266.63
2022-11-24T05:35:14.280Z,97279.34
2022-11-24T05:39:16.279Z,97277.38
2022-11-24T05:43:18.493Z,97281.63
2022-11-24T05:47:21.387Z,97289.31
2022-11-24T05:51:23.391Z,97288.41
2022-11-24T05:55:25.437Z,97300.44
2022-11-24T05:59:27.540Z,97291.56
2022-11-24T06:03:29.539Z,97290.66
2022-11-24T06:07:31.724Z,97295.09
2022-11-24T06:11:33.816Z,97298.50
2022-11-24T06:15:37.632Z,97288.97
2022-11-24T06:19:42.048Z,97305.41
2022-11-24T06:23:47.874Z,97310.47
2022-11-24T06:27:49.973Z,97311.28
2022-11-24T06:31:52.092Z,97303.47
2022-11-24T06:36:01.378Z,97312.00
2022-11-24T06:40:04.388Z,97318.97
2022-11-24T06:44:06.451Z,97317.69
2022-11-24T06:48:08.472Z,97321.59
2022-11-24T06:52:10.512Z,97316.28
2022-11-24T06:56:16.779Z,97323.91
2022-11-24T07:00:19.281Z,97325.88
2022-11-24T07:04:21.492Z,97333.84
2022-11-24T07:08:23.721Z,97336.50
2022-11-24T07:12:25.724Z,97339.06
2022-11-24T07:16:28.415Z,97342.47
2022-11-24T07:20:30.512Z,97347.69
2022-11-24T07:24:32.867Z,97349.63
2022-11-24T07:28:36.803Z,97350.50
2022-11-24T07:32:38.802Z,97361.88
2022-11-24T07:36:41.536Z,97363.72
2022-11-24T07:40:43.592Z,97367.50
2022-11-24T07:44:45.646Z,97362.41
2022-11-24T07:48:48.093Z,97371.00
2022-11-24T07:52:50.512Z,97374.47
2022-11-24T07:56:52.486Z,97372.56
2022-11-24T08:00:54.917Z,97382.91
2022-11-24T08:04:56.956Z,97382.75
2022-11-24T08:08:59.837Z,97388.84
2022-11-24T08:13:02.393Z,97391.97
2022-11-24T08:17:04.442Z,97392.44
2022-11-24T08:21:07.431Z,97398.06
2022-11-24T08:25:09.817Z,97394.13
2022-11-24T08:29:11.884Z,97406.78
2022-11-24T08:33:14.001Z,97413.31
2022-11-24T08:37:16.041Z,97414.75
2022-11-24T08:41:18.103Z,97426.00
2022-11-24T08:45:21.926Z,97415.41
2022-11-24T08:49:25.124Z,97412.28
2022-11-24T08:53:27.155Z,97423.38
2022-11-24T08:57:29.217Z,97443.06
2022-11-24T09:01:31.393Z,97430.78
2022-11-24T09:09:55.445Z,97445.31
2022-11-24T09:13:57.729Z,97456.91
2022-11-24T09:17:59.758Z,97456.06
2022-11-24T09:22:01.950Z,97459.91
2022-11-24T09:26:20.335Z,97468.13
2022-11-24T09:30:23.147Z,97459.25
2022-11-24T09:34:25.172Z,97462.72
2022-11-24T09:38:27.942Z,97470.50
2022-11-24T09:42:39.505Z,97480.25
2022-11-24T09:47:19.224Z,97489.75
2022-11-24T09:51:25.104Z,97495.94
2022-11-24T09:55:36.716Z,97499.38
2022-11-24T09:59:41.034Z,97511.19
2022-11-24T10:03:45.518Z,97513.09
2022-11-24T10:08:11.803Z,97516.94
2022-11-24T10:12:38.880Z,97525.94
2022-11-24T10:16:59.894Z,97534.78
2022-11-24T10:21:19.100Z,97536.19
2022-11-24T10:25:26.109Z,97528.88
2022-11-24T10:29:39.799Z,97542.44
2022-11-24T10:33:42.728Z,97542.53
2022-11-24T10:38:21.804Z,97549.56
2022-11-24T10:42:29.326Z,97552.06
2022-11-24T10:46:36.273Z,97544.94
2022-11-24T10:50:42.439Z,97547.13
2022-11-24T10:54:58.855Z,97558.44
2022-11-24T10:59:30.457Z,97551.25
2022-11-24T11:03:33.181Z,97548.28
2022-11-24T11:07:35.269Z,97557.63
2022-11-24T11:11:39.242Z,97564.03
2022-11-24T11:15:41.349Z,97565.59
2022-11-24T11:19:49.503Z,97575.00
2022-11-24T11:23:52.282Z,97573.88
2022-11-24T11:28:18.458Z,97575.13
2022-11-24T11:36:51.251Z,97582.97
2022-11-24T11:40:53.465Z,97582.53
2022-11-24T11:45:02.575Z,97579.03
2022-11-24T11:49:04.990Z,97589.94
2022-11-24T11:53:31.389Z,97589.31
2022-11-24T11:57:45.161Z,97594.56
2022-11-24T12:02:21.440Z,97598.25
2022-11-24T12:06:33.491Z,97608.50
2022-11-24T12:10:44.921Z,97609.44
2022-11-24T12:15:14.782Z,97612.22
2022-11-24T12:19:46.476Z,97610.59
2022-11-24T12:24:26.198Z,97612.88
2022-11-24T12:28:49.473Z,97622.47
2022-11-24T12:33:13.123Z,97623.38
2022-11-24T12:37:24.394Z,97618.13
2022-11-24T12:41:55.718Z,97630.78
2022-11-24T12:46:19.178Z,97628.47
2022-11-24T12:50:28.077Z,97619.28
2022-11-24T12:54:38.686Z,97621.56
2022-11-24T12:58:52.199Z,97620.16
2022-11-24T13:03:09.762Z,97630.09
2022-11-24T13:07:14.958Z,97628.81
2022-11-24T13:11:23.152Z,97633.00
2022-11-24T13:15:45.240Z,97640.78
2022-11-24T13:19:49.755Z,97640.28
2022-11-24T13:24:04.814Z,97639.16
2022-11-24T13:29:01.781Z,97644.28
2022-11-24T13:33:16.960Z,97645.53
2022-11-24T13:37:27.301Z,97653.47
2022-11-24T13:42:00.382Z,97661.34
2022-11-24T13:46:03.773Z,97669.25
2022-11-24T13:50:05.943Z,97671.19
2022-11-24T13:54:10.395Z,97674.41
2022-11-24T13:58:12.438Z,97674.09
2022-11-24T14:02:23.162Z,97677.78
2022-11-24T14:06:31.251Z,97660.78
2022-11-24T14:10:37.990Z,97662.06
2022-11-24T14:14:41.186Z,97656.97
2022-11-24T14:18:45.993Z,97658.25
2022-11-24T14:22:48.064Z,97664.63
2022-11-24T14:26:51.060Z,97670.03
2022-11-24T14:31:17.916Z,97672.72
2022-11-24T14:35:27.575Z,97669.59
2022-11-24T14:39:30.249Z,97674.25
2022-11-24T14:43:32.988Z,97674.47
2022-11-24T14:47:37.442Z,97680.97
2022-11-24T14:51:44.396Z,97665.00
2022-11-24T14:55:48.852Z,97662.09
2022-11-24T15:00:12.807Z,97672.31
2022-11-24T15:04:46.379Z,97672.97
2022-11-24T15:08:48.623Z,97684.19
2022-11-24T15:12:57.894Z,97689.94
2022-11-24T15:17:00.496Z,97686.16
2022-11-24T15:21:03.454Z,97692.78
2022-11-24T15:25:27.432Z,97697.84
2022-11-24T15:29:29.446Z,97695.13
2022-11-24T15:33:32.403Z,97696.66
2022-11-24T15:37:34.455Z,97706.75
2022-11-24T15:41:36.617Z,97714.31
2022-11-24T15:45:38.794Z,97721.56
2022-11-24T15:49:40.812Z,97719.34
2022-11-24T15:54:00.319Z,97734.81
2022-11-24T15:58:03.269Z,97733.56
2022-11-24T16:02:05.722Z,97743.41
2022-11-24T16:06:23.649Z,97747.28
2022-11-24T16:10:31.843Z,97747.81
2022-11-24T16:14:37.232Z,97750.91
2022-11-24T16:18:39.991Z,97752.22
2022-11-24T16:22:42.066Z,97747.31
2022-11-24T16:26:44.467Z,97752.09
2022-11-24T16:30:50.411Z,97750.94
2022-11-24T16:34:52.515Z,97750.44
2022-11-24T16:38:54.630Z,97763.72
2022-11-24T16:42:57.932Z,97767.38
2022-11-24T16:47:00.563Z,97772.78
2022-11-24T16:51:07.453Z,97773.22
2022-11-24T16:55:11.574Z,97782.00
2022-11-24T16:59:13.610Z,97770.84
2022-11-24T17:03:15.775Z,97764.03
2022-11-24T17:07:18.679Z,97765.19
2022-11-24T17:11:24.298Z,97773.25
2022-11-24T17:15:33.450Z,97767.56
2022-11-24T17:19:37.438Z,97776.41
2022-11-24T17:23:39.817Z,97776.16
2022-11-24T17:27:41.831Z,97777.13
2022-11-24T17:31:43.945Z,97777.91
2022-11-24T17:35:46.006Z,97783.09
2022-11-24T17:40:12.503Z,97789.44
2022-11-24T17:44:10.663Z,97796.53
2022-11-24T17:48:12.689Z,97795.75
2022-11-24T17:52:15.677Z,97797.69
2022-11-24T17:56:25.608Z,97795.13
2022-11-24T18:00:27.603Z,97797.13
2022-11-24T18:04:29.621Z,97806.88
2022-11-24T18:08:36.001Z,97810.38
2022-11-24T18:12:38.059Z,97805.25
2022-11-24T18:16:40.201Z,97809.69
2022-11-24T18:20:42.308Z,97803.78
2022-11-24T18:24:44.299Z,97812.75
2022-11-24T18:28:46.429Z,97805.81
2022-11-24T18:32:48.409Z,97808.13
2022-11-24T18:36:52.485Z,97813.13
2022-11-24T18:40:59.351Z,97812.84
2022-11-24T18:45:01.425Z,97803.81
2022-11-24T18:49:04.350Z,97810.22
2022-11-24T18:53:06.474Z,97807.19
2022-11-24T18:57:08.504Z,97813.69
2022-11-24T19:01:19.985Z,97813.38
2022-11-24T19:05:22.111Z,97813.13
2022-11-24T19:09:25.559Z,97806.03
2022-11-24T19:13:27.673Z,97818.84
2022-11-24T19:17:29.690Z,97805.69
2022-11-24T19:21:33.609Z,97786.47
2022-11-24T19:25:35.659Z,97790.63
2022-11-24T19:29:42.845Z,97790.50
2022-11-24T19:33:45.666Z,97799.94
2022-11-24T19:37:47.697Z,97793.69
2022-11-24T19:41:49.755Z,97793.59
2022-11-24T19:45:51.838Z,97796.16
2022-11-24T19:49:54.104Z,97784.97
2022-11-24T19:53:56.556Z,97797.00
2022-11-24T19:57:58.584Z,97793.50
2022-11-24T20:02:02.461Z,97787.50
2022-11-24T20:06:05.858Z,97794.59
2022-11-24T20:10:08.402Z,97798.31
2022-11-24T20:14:15.452Z,97800.94
2022-11-24T20:18:17.467Z,97790.63
2022-11-24T20:22:19.476Z,97797.53
2022-11-24T20:26:23.857Z,97798.44
2022-11-24T20:30:25.874Z,97805.28
2022-11-24T20:34:28.439Z,97808.72
2022-11-24T20:38:31.078Z,97802.56
2022-11-24T20:42:35.423Z,97814.69
2022-11-24T20:46:39.250Z,97811.19
2022-11-24T20:50:41.285Z,97811.09
2022-11-24T20:54:46.635Z,97813.81
2022-11-24T20:58:48.827Z,97813.72
2022-11-24T21:02:50.838Z,97816.22
2022-11-24T21:06:53.035Z,97811.91
2022-11-24T21:10:56.792Z,97797.19
2022-11-24T21:14:58.801Z,97805.88
2022-11-24T21:19:06.210Z,97807.66
2022-11-24T21:23:08.251Z,97813.81
2022-11-24T21:27:10.311Z,97811.31
2022-11-24T21:31:17.749Z,97814.84
2022-11-24T21:35:19.844Z,97815.84
2022-11-24T21:39:21.940Z,97819.50
2022-11-24T21:43:23.987Z,97815.50
2022-11-24T21:47:26.905Z,97814.06
2022-11-24T21:51:29.335Z,97817.63
2022-11-24T21:55:31.395Z,97809.91
2022-11-24T21:59:33.386Z,97815.28
2022-11-24T22:03:35.548Z,97812.72
2022-11-24T22:07:37.671Z,97805.03
2022-11-24T22:11:39.720Z,97808.72
2022-11-24T22:15:41.816Z,97808.09
2022-11-24T22:19:43.867Z,97806.59
2022-11-24T22:23:46.254Z,97805.91
2022-11-24T22:27:48.433Z,97804.28
2022-11-24T22:31:50.629Z,97796.53
2022-11-24T22:35:57.456Z,97794.09
2022-11-24T22:39:59.646Z,97792.31
2022-11-24T22:44:01.812Z,97784.50
2022-11-24T22:48:04.034Z,97779.31
2022-11-24T22:52:06.155Z,97786.94
2022-11-24T22:56:11.798Z,97792.91
2022-11-24T23:00:14.415Z,97803.28
2022-11-24T23:04:16.484Z,97785.13
2022-11-24T23:08:18.566Z,97778.22
2022-11-24T23:12:20.577Z,97780.81
2022-11-24T23:16:23.823Z,97793.03
2022-11-24T23:20:25.852Z,97798.41
2022-11-24T23:24:27.914Z,97796.69
2022-11-24T23:28:30.322Z,97788.03
2022-11-24T23:32:32.350Z,97789.69
2022-11-24T23:36:34.428Z,97786.13
2022-11-24T23:40:36.529Z,97785.00
2022-11-24T23:44:38.594Z,97790.78
2022-11-24T23:48:41.017Z,97795.97
2022-11-24T23:52:43.028Z,97785.72
2022-11-24T23:56:45.089Z,97782.25
